Time;durP1;ratioP1;P1;durP2;ratioP2;P2;SDS_P1;SDS_P2;PMS_P1;PMS_P2;Temp;Humidity;BMP_temperature;BMP_pressure;BME280_temperature;BME280_humidity;BME280_pressure;Samples;Min_cycle;Max_cycle;Signal;HPM_P1;HPM_P2
2022/08/07 00:01:23;;;;;;;;;;;;;;;22.09;72.62;99335.19;1702567;84;21176;-70
2022/08/07 00:03:49;;;;;;;;;;;;;;;21.98;72.91;99334.73;1682548;84;21007;-68
2022/08/07 00:06:16;;;;;;;;;;;;;;;21.89;73.24;99334.05;1689328;83;20291;-68
2022/08/07 00:08:42;;;;;;;;;;;;;;;21.85;73.17;99332.33;1713495;83;20127;-68
2022/08/07 00:11:09;;;;;;;;;;;;;;;21.80;72.83;99329.55;1712848;83;20157;-70
2022/08/07 00:13:36;;;;;;;;;;;;;;;21.78;72.66;99334.92;1692131;83;21166;-69
2022/08/07 00:16:04;;;;;;;;;;;;;;;21.73;72.54;99339.72;1686623;85;20101;-68
2022/08/07 00:18:31;;;;;;;;;;;;;;;21.69;72.58;99342.61;1694881;84;20425;-69
2022/08/07 00:21:00;;;;;;;;;;;;;;;21.67;72.67;99344.75;1694483;84;20132;-69
2022/08/07 00:23:26;;;;;;;;;;;;;;;21.68;72.47;99351.82;1644751;86;20100;-68
2022/08/07 00:25:52;;;;;;;;;;;;;;;21.66;72.33;99350.42;1677817;84;21979;-67
2022/08/07 00:28:19;;;;;;;;;;;;;;;21.63;72.45;99352.27;1666548;84;20101;-68
2022/08/07 00:30:45;;;;;;;;;;;;;;;21.62;72.34;99341.97;1667202;84;20094;-68
2022/08/07 00:33:12;;;;;;;;;;;;;;;21.59;72.16;99341.09;1667418;84;20101;-68
2022/08/07 00:35:38;;;;;;;;;;;;;;;21.54;72.01;99343.72;1685020;84;20402;-68
2022/08/07 00:38:04;;;;;;;;;;;;;;;21.44;71.98;99340.83;1696571;84;21128;-68
2022/08/07 00:40:31;;;;;;;;;;;;;;;21.35;72.27;99346.37;1682472;85;20114;-68
2022/08/07 00:42:58;;;;;;;;;;;;;;;21.33;72.30;99348.47;1689894;82;20107;-70
2022/08/07 00:45:25;;;;;;;;;;;;;;;21.26;72.15;99352.69;1734604;82;20143;-68
2022/08/07 00:47:52;;;;;;;;;;;;;;;21.18;72.25;99358.48;1712253;82;20129;-69
2022/08/07 00:50:18;;;;;;;;;;;;;;;21.14;72.18;99354.63;1722118;82;21999;-71
2022/08/07 00:52:44;;;;;;;;;;;;;;;21.09;72.15;99360.47;1705794;82;20164;-70
2022/08/07 00:55:11;;;;;;;;;;;;;;;21.06;72.23;99373.95;1720941;82;20083;-70
2022/08/07 00:57:37;;;;;;;;;;;;;;;21.02;72.13;99387.61;1703479;84;20098;-70
2022/08/07 01:00:04;;;;;;;;;;;;;;;20.99;72.12;99384.59;1706579;84;20426;-71
2022/08/07 01:02:31;;;;;;;;;;;;;;;20.89;72.11;99386.00;1690374;84;21227;-69
2022/08/07 01:04:58;;;;;;;;;;;;;;;20.80;72.15;99386.10;1711008;82;20451;-70
2022/08/07 01:07:26;;;;;;;;;;;;;;;20.71;72.20;99392.92;1697079;84;20082;-67
2022/08/07 01:09:52;;;;;;;;;;;;;;;20.63;72.12;99393.28;1709858;84;20678;-67
2022/08/07 01:12:18;;;;;;;;;;;;;;;20.56;72.46;99400.70;1709543;84;20158;-67
2022/08/07 01:14:45;;;;;;;;;;;;;;;20.54;72.16;99397.94;1700520;84;21172;-67
2022/08/07 01:17:12;;;;;;;;;;;;;;;20.49;71.51;99397.83;1710495;82;20085;-67
2022/08/07 01:19:38;;;;;;;;;;;;;;;20.39;71.11;99409.20;1710880;83;20114;-67
2022/08/07 01:22:06;;;;;;;;;;;;;;;20.30;71.11;99413.33;1710991;84;20086;-67
2022/08/07 01:24:35;;;;;;;;;;;;;;;20.25;71.06;99409.99;1700810;83;20141;-68
2022/08/07 01:27:01;;;;;;;;;;;;;;;20.18;71.18;99413.80;1711288;83;21093;-66
2022/08/07 01:29:28;;;;;;;;;;;;;;;20.14;71.17;99415.34;1701376;83;20429;-67
2022/08/07 01:31:55;;;;;;;;;;;;;;;20.04;70.68;99427.24;1682304;83;20121;-67
2022/08/07 01:34:21;;;;;;;;;;;;;;;19.97;70.74;99430.59;1699294;83;20104;-69
2022/08/07 01:36:48;;;;;;;;;;;;;;;19.85;70.57;99426.50;1707991;83;20160;-68
2022/08/07 01:39:17;;;;;;;;;;;;;;;19.70;70.71;99432.34;1713259;83;21183;-68
2022/08/07 01:41:47;;;;;;;;;;;;;;;19.57;71.04;99438.44;1687520;83;20112;-69
2022/08/07 01:44:14;;;;;;;;;;;;;;;19.51;71.10;99433.95;1691624;83;20450;-69
2022/08/07 01:46:41;;;;;;;;;;;;;;;19.44;70.78;99438.63;1687793;83;20443;-68
2022/08/07 01:49:10;;;;;;;;;;;;;;;19.38;70.88;99443.05;1718619;83;20137;-68
2022/08/07 01:51:37;;;;;;;;;;;;;;;19.37;70.75;99449.48;1708695;83;21115;-71
2022/08/07 01:54:05;;;;;;;;;;;;;;;19.37;70.52;99450.83;1710693;83;20085;-69
2022/08/07 01:56:39;;;;;;;;;;;;;;;19.38;70.22;99456.54;1701326;83;20154;-68
2022/08/07 01:59:12;;;;;;;;;;;;;;;19.39;70.05;99462.25;1700506;83;20124;-69
2022/08/07 02:01:42;;;;;;;;;;;;;;;19.43;69.54;99447.75;1689870;83;20089;-71
2022/08/07 02:04:11;;;;;;;;;;;;;;;19.41;69.34;99452.56;1715856;83;21157;-69
2022/08/07 02:06:39;;;;;;;;;;;;;;;19.39;69.19;99447.41;1703076;83;20111;-68
2022/08/07 02:09:08;;;;;;;;;;;;;;;19.38;69.00;99450.31;1713546;83;20427;-70
2022/08/07 02:11:37;;;;;;;;;;;;;;;19.39;68.96;99445.23;1693102;83;20131;-69
2022/08/07 02:14:06;;;;;;;;;;;;;;;19.37;68.83;99441.91;1667556;85;20421;-72
2022/08/07 02:16:35;;;;;;;;;;;;;;;19.39;68.63;99431.22;1689688;83;21180;-70
2022/08/07 02:19:02;;;;;;;;;;;;;;;19.39;68.38;99417.73;1669042;84;20088;-71
2022/08/07 02:21:29;;;;;;;;;;;;;;;19.33;68.36;99411.86;1692843;83;20084;-70
2022/08/07 02:23:56;;;;;;;;;;;;;;;19.22;68.45;99401.84;1717065;83;20432;-71
2022/08/07 02:26:22;;;;;;;;;;;;;;;19.14;68.81;99395.95;1676894;85;20095;-69
2022/08/07 02:28:50;;;;;;;;;;;;;;;19.09;68.92;99413.63;1711380;83;21768;-70
2022/08/07 02:31:17;;;;;;;;;;;;;;;19.04;69.05;99420.73;1719689;83;20085;-71
2022/08/07 02:33:50;;;;;;;;;;;;;;;18.98;69.37;99431.09;1704385;80;20191;-68
2022/08/07 02:36:17;;;;;;;;;;;;;;;18.93;69.90;99448.44;1710653;83;20203;-69
2022/08/07 02:38:43;;;;;;;;;;;;;;;18.93;70.18;99447.09;1725100;83;20120;-69
2022/08/07 02:41:10;;;;;;;;;;;;;;;18.98;70.61;99447.27;1716154;83;21102;-68
2022/08/07 02:43:37;;;;;;;;;;;;;;;19.02;70.88;99442.55;1724911;83;20152;-69
2022/08/07 02:46:03;;;;;;;;;;;;;;;19.03;71.31;99436.64;1706776;83;20450;-68
2022/08/07 02:48:31;;;;;;;;;;;;;;;19.00;71.57;99437.91;1699428;83;20889;-68
2022/08/07 02:51:00;;;;;;;;;;;;;;;18.94;71.67;99435.27;1721707;83;20474;-68
2022/08/07 02:53:30;;;;;;;;;;;;;;;18.87;71.78;99440.76;1684780;83;21307;-69
2022/08/07 02:55:57;;;;;;;;;;;;;;;18.74;72.30;99441.42;1679252;83;20146;-69
2022/08/07 02:58:23;;;;;;;;;;;;;;;18.64;72.62;99453.23;1690558;83;20444;-69
2022/08/07 03:00:51;;;;;;;;;;;;;;;18.65;72.95;99453.52;1715447;83;20164;-68
2022/08/07 03:03:18;;;;;;;;;;;;;;;18.67;72.97;99450.07;1701225;83;20199;-68
2022/08/07 03:05:45;;;;;;;;;;;;;;;18.66;72.85;99456.52;1694723;83;21431;-69
2022/08/07 03:08:12;;;;;;;;;;;;;;;18.59;72.90;99454.43;1710128;83;20482;-70
2022/08/07 03:10:40;;;;;;;;;;;;;;;18.55;73.13;99447.82;1724769;82;20156;-69
2022/08/07 03:13:06;;;;;;;;;;;;;;;18.51;73.52;99455.51;1699232;83;20443;-71
2022/08/07 03:15:33;;;;;;;;;;;;;;;18.55;73.73;99458.08;1707141;83;20251;-70
2022/08/07 03:18:00;;;;;;;;;;;;;;;18.60;73.66;99460.09;1660107;83;21156;-69
2022/08/07 03:20:26;;;;;;;;;;;;;;;18.63;73.63;99482.05;1687772;83;20237;-71
2022/08/07 03:22:53;;;;;;;;;;;;;;;18.69;73.63;99481.68;1696508;83;20176;-71
2022/08/07 03:25:22;;;;;;;;;;;;;;;18.72;73.70;99487.43;1702491;83;20130;-69
2022/08/07 03:27:50;;;;;;;;;;;;;;;18.78;73.64;99488.41;1724776;82;20148;-70
2022/08/07 03:30:17;;;;;;;;;;;;;;;18.81;73.47;99496.06;1724853;83;21973;-70
2022/08/07 03:32:45;;;;;;;;;;;;;;;18.81;73.26;99494.71;1718389;82;20373;-71
2022/08/07 03:35:14;;;;;;;;;;;;;;;18.80;73.09;99494.41;1672180;85;20448;-69
2022/08/07 03:37:43;;;;;;;;;;;;;;;18.78;72.85;99497.84;1706038;84;20124;-69
2022/08/07 03:40:11;;;;;;;;;;;;;;;18.73;73.08;99493.66;1684684;84;20204;-69
2022/08/07 03:42:37;;;;;;;;;;;;;;;18.76;73.15;99499.43;1700945;84;21139;-70
2022/08/07 03:45:05;;;;;;;;;;;;;;;18.79;72.97;99491.42;1706264;84;20172;-70
2022/08/07 03:47:32;;;;;;;;;;;;;;;18.79;72.97;99495.47;1658883;84;20122;-69
2022/08/07 03:49:58;;;;;;;;;;;;;;;18.81;72.97;99494.20;1684846;84;20170;-71
2022/08/07 03:52:27;;;;;;;;;;;;;;;18.84;72.87;99496.97;1677075;84;20152;-69
2022/08/07 03:54:59;;;;;;;;;;;;;;;18.84;72.71;99501.01;1690245;84;21145;-72
2022/08/07 03:57:26;;;;;;;;;;;;;;;18.79;72.68;99502.20;1693870;84;20140;-68
2022/08/07 03:59:53;;;;;;;;;;;;;;;18.78;72.78;99502.72;1680947;84;20145;-69
2022/08/07 04:02:20;;;;;;;;;;;;;;;18.78;72.96;99505.93;1692404;84;20216;-68
2022/08/07 04:04:46;;;;;;;;;;;;;;;18.78;73.03;99507.28;1699168;84;20121;-68
2022/08/07 04:07:17;;;;;;;;;;;;;;;18.80;72.93;99506.53;1679065;84;21205;-68
2022/08/07 04:09:45;;;;;;;;;;;;;;;18.77;72.81;99511.84;1681889;84;20195;-68
2022/08/07 04:12:13;;;;;;;;;;;;;;;18.73;73.08;99515.20;1695111;84;20121;-71
2022/08/07 04:14:39;;;;;;;;;;;;;;;18.69;73.23;99514.84;1701858;84;20606;-68
2022/08/07 04:17:06;;;;;;;;;;;;;;;18.74;73.43;99520.91;1686868;84;20129;-68
2022/08/07 04:19:33;;;;;;;;;;;;;;;18.79;73.42;99515.68;1689464;84;21167;-68
2022/08/07 04:22:00;;;;;;;;;;;;;;;18.84;73.46;99513.97;1707265;84;20164;-68
2022/08/07 04:24:29;;;;;;;;;;;;;;;18.86;73.29;99519.95;1686555;84;20437;-68
2022/08/07 04:26:56;;;;;;;;;;;;;;;18.81;73.13;99521.14;1699487;84;20117;-68
2022/08/07 04:29:23;;;;;;;;;;;;;;;18.73;73.25;99510.65;1707364;84;20145;-70
2022/08/07 04:31:50;;;;;;;;;;;;;;;18.69;73.56;99514.02;1683501;84;21102;-68
2022/08/07 04:34:16;;;;;;;;;;;;;;;18.70;73.68;99515.64;1707060;82;20466;-68
2022/08/07 04:36:43;;;;;;;;;;;;;;;18.70;74.00;99515.13;1707331;84;20165;-70
2022/08/07 04:39:10;;;;;;;;;;;;;;;18.65;73.85;99516.31;1707366;84;20140;-69
2022/08/07 04:41:36;;;;;;;;;;;;;;;18.61;73.86;99519.69;1707364;84;20148;-71
2022/08/07 04:44:03;;;;;;;;;;;;;;;18.55;73.93;99526.77;1707303;84;21104;-69
2022/08/07 04:46:38;;;;;;;;;;;;;;;18.52;74.16;99529.08;1693199;84;20135;-70
2022/08/07 04:49:19;;;;;;;;;;;;;;;18.49;74.02;99541.94;1693613;84;20108;-71
2022/08/07 04:52:13;;;;;;;;;;;;;;;18.48;74.07;99541.63;1668397;84;20205;-68
2022/08/07 04:54:55;;;;;;;;;;;;;;;18.44;74.13;99549.83;1703970;84;20132;-69
2022/08/07 04:57:28;;;;;;;;;;;;;;;18.42;74.14;99549.23;1702283;84;21145;-69
2022/08/07 05:00:06;;;;;;;;;;;;;;;18.40;74.41;99543.24;1702326;84;20148;-69
2022/08/07 05:02:55;;;;;;;;;;;;;;;18.42;74.35;99557.31;1707786;84;20125;-70
2022/08/07 05:05:32;;;;;;;;;;;;;;;18.38;74.32;99557.42;1683232;84;20121;-67
2022/08/07 05:08:05;;;;;;;;;;;;;;;18.37;74.54;99563.05;1681899;84;20131;-71
2022/08/07 05:10:38;;;;;;;;;;;;;;;18.41;74.77;99570.97;1699196;84;22327;-72
2022/08/07 05:13:16;;;;;;;;;;;;;;;18.45;74.60;99573.03;1685270;84;20115;-69
2022/08/07 05:15:43;;;;;;;;;;;;;;;18.48;74.48;99573.95;1699659;84;20115;-69
2022/08/07 05:18:19;;;;;;;;;;;;;;;18.54;74.62;99572.80;1671342;84;20155;-69
2022/08/07 05:20:48;;;;;;;;;;;;;;;18.58;74.47;99576.70;1693215;84;20112;-69
2022/08/07 05:23:36;;;;;;;;;;;;;;;18.57;74.43;99569.13;1696863;84;21161;-69
2022/08/07 05:26:03;;;;;;;;;;;;;;;18.56;74.26;99574.75;1676948;84;20458;-70
2022/08/07 05:28:33;;;;;;;;;;;;;;;18.51;74.43;99582.66;1686663;84;20475;-70
2022/08/07 05:31:00;;;;;;;;;;;;;;;18.46;74.63;99585.44;1676875;84;20192;-69
2022/08/07 05:33:27;;;;;;;;;;;;;;;18.49;74.80;99593.12;1707552;82;20112;-71
2022/08/07 05:35:53;;;;;;;;;;;;;;;18.47;74.75;99589.83;1709452;83;21214;-69
2022/08/07 05:38:24;;;;;;;;;;;;;;;18.46;74.83;99590.83;1709073;83;20519;-70
2022/08/07 05:40:48;;;;;;;;;;;;;;;18.51;74.86;99590.20;1695558;83;20125;-70
2022/08/07 05:43:15;;;;;;;;;;;;;;;18.51;74.73;99586.70;1709924;83;20181;-70
2022/08/07 05:45:42;;;;;;;;;;;;;;;18.51;74.80;99586.70;1708733;83;20143;-69
2022/08/07 05:48:08;;;;;;;;;;;;;;;18.48;74.81;99584.73;1709590;83;20581;-68
2022/08/07 05:50:40;;;;;;;;;;;;;;;18.47;74.96;99582.27;1700387;82;20147;-69
2022/08/07 05:53:06;;;;;;;;;;;;;;;18.41;74.96;99588.48;1680436;83;20144;-69
2022/08/07 05:55:33;;;;;;;;;;;;;;;18.36;75.21;99587.80;1696253;83;20553;-69
2022/08/07 05:57:59;;;;;;;;;;;;;;;18.34;75.28;99591.23;1702230;83;20201;-69
2022/08/07 06:00:26;;;;;;;;;;;;;;;18.39;75.36;99592.75;1704282;83;21187;-66
2022/08/07 06:02:54;;;;;;;;;;;;;;;18.43;75.34;99591.81;1695038;83;20182;-71
2022/08/07 06:05:22;;;;;;;;;;;;;;;18.44;75.44;99595.62;1699193;83;20181;-70
2022/08/07 06:07:49;;;;;;;;;;;;;;;18.49;75.45;99601.20;1689007;83;20252;-70
2022/08/07 06:10:17;;;;;;;;;;;;;;;18.53;75.51;99595.38;1721923;83;20136;-69
2022/08/07 06:12:45;;;;;;;;;;;;;;;18.56;75.39;99593.61;1694270;83;21093;-71
2022/08/07 06:15:14;;;;;;;;;;;;;;;18.56;75.37;99594.95;1721429;83;20152;-69
2022/08/07 06:17:41;;;;;;;;;;;;;;;18.54;75.66;99597.84;1678755;83;20169;-72
2022/08/07 06:20:09;;;;;;;;;;;;;;;18.60;75.56;99592.11;1720423;83;20171;-72
2022/08/07 06:22:36;;;;;;;;;;;;;;;18.59;75.53;99594.52;1717694;83;20124;-69
2022/08/07 06:25:05;;;;;;;;;;;;;;;18.61;75.64;99595.13;1703739;82;21165;-69
2022/08/07 06:27:32;;;;;;;;;;;;;;;18.62;75.58;99597.58;1723259;83;20148;-68
2022/08/07 06:29:59;;;;;;;;;;;;;;;18.59;75.52;99595.87;1714505;83;20118;-68
2022/08/07 06:32:26;;;;;;;;;;;;;;;18.60;75.78;99598.33;1714267;83;20128;-68
2022/08/07 06:34:53;;;;;;;;;;;;;;;18.65;75.68;99599.02;1740333;82;20123;-68
2022/08/07 06:37:19;;;;;;;;;;;;;;;18.65;75.60;99598.50;1740040;82;22039;-68
2022/08/07 06:39:45;;;;;;;;;;;;;;;18.68;75.72;99603.97;1725271;82;20140;-72
2022/08/07 06:42:18;;;;;;;;;;;;;;;18.67;75.60;99602.30;1732102;82;20103;-68
2022/08/07 06:44:46;;;;;;;;;;;;;;;18.66;75.92;99596.63;1698991;82;20185;-69
2022/08/07 06:47:13;;;;;;;;;;;;;;;18.67;75.84;99598.27;1709537;82;20120;-68
2022/08/07 06:49:40;;;;;;;;;;;;;;;18.69;75.95;99597.55;1719181;82;21124;-68
2022/08/07 06:52:07;;;;;;;;;;;;;;;18.71;75.96;99593.59;1731809;82;20175;-67
2022/08/07 06:54:34;;;;;;;;;;;;;;;18.78;76.04;99596.21;1723987;82;20211;-68
2022/08/07 06:57:01;;;;;;;;;;;;;;;18.88;75.93;99599.23;1743099;82;20119;-68
2022/08/07 06:59:31;;;;;;;;;;;;;;;18.90;75.70;99599.86;1742712;82;20143;-68
2022/08/07 07:01:59;;;;;;;;;;;;;;;18.92;75.61;99601.80;1729122;82;21138;-67
2022/08/07 07:04:26;;;;;;;;;;;;;;;18.88;75.54;99604.11;1729610;82;20125;-68
2022/08/07 07:06:52;;;;;;;;;;;;;;;18.87;75.58;99613.25;1743087;82;20115;-67
2022/08/07 07:09:24;;;;;;;;;;;;;;;18.94;75.63;99605.09;1743078;82;20111;-68
2022/08/07 07:12:07;;;;;;;;;;;;;;;18.99;75.58;99606.09;1727496;82;20234;-70
2022/08/07 07:15:10;;;;;;;;;;;;;;;19.00;75.53;99610.96;1735877;82;21329;-68
2022/08/07 07:17:56;;;;;;;;;;;;;;;19.07;75.54;99610.37;1696925;82;20116;-68
2022/08/07 07:20:36;;;;;;;;;;;;;;;19.12;75.46;99609.18;1705963;82;20111;-69
2022/08/07 07:23:03;;;;;;;;;;;;;;;19.21;75.16;99613.77;1691259;82;20529;-68
2022/08/07 07:25:29;;;;;;;;;;;;;;;19.27;74.67;99611.52;1718386;82;20106;-70
2022/08/07 07:28:17;;;;;;;;;;;;;;;19.34;74.24;99619.03;1726460;82;21150;-69
2022/08/07 07:30:52;;;;;;;;;;;;;;;19.35;74.01;99630.11;1728325;82;20130;-70
2022/08/07 07:33:18;;;;;;;;;;;;;;;19.29;74.09;99629.15;1718786;82;20163;-71
2022/08/07 07:35:47;;;;;;;;;;;;;;;19.27;74.10;99626.34;1719043;83;20147;-70
2022/08/07 07:38:13;;;;;;;;;;;;;;;19.34;74.31;99631.17;1708243;83;20153;-68
2022/08/07 07:40:40;;;;;;;;;;;;;;;19.39;74.25;99629.49;1711279;83;21137;-69
2022/08/07 07:43:06;;;;;;;;;;;;;;;19.44;74.01;99633.69;1724869;83;20111;-70
2022/08/07 07:45:33;;;;;;;;;;;;;;;19.42;73.74;99633.61;1724932;83;20128;-69
2022/08/07 07:48:00;;;;;;;;;;;;;;;19.34;73.68;99642.79;1694843;83;20116;-69
2022/08/07 07:50:27;;;;;;;;;;;;;;;19.33;73.77;99635.73;1700781;83;20138;-69
2022/08/07 07:52:53;;;;;;;;;;;;;;;19.34;73.67;99642.79;1722318;83;21141;-69
2022/08/07 07:55:20;;;;;;;;;;;;;;;19.28;73.26;99636.93;1724707;83;20425;-71
2022/08/07 07:57:48;;;;;;;;;;;;;;;19.22;73.58;99643.72;1715655;83;20126;-71
2022/08/07 08:00:14;;;;;;;;;;;;;;;19.21;73.63;99637.53;1715377;83;20408;-69
2022/08/07 08:02:41;;;;;;;;;;;;;;;19.28;73.47;99640.14;1695303;83;20103;-69
2022/08/07 08:05:08;;;;;;;;;;;;;;;19.27;73.33;99644.70;1724813;83;21791;-70
2022/08/07 08:07:35;;;;;;;;;;;;;;;19.31;73.37;99641.05;1722594;83;20478;-69
2022/08/07 08:10:03;;;;;;;;;;;;;;;19.35;73.02;99644.42;1688621;83;20134;-68
2022/08/07 08:12:31;;;;;;;;;;;;;;;19.33;72.97;99645.17;1712580;83;20191;-68
2022/08/07 08:14:57;;;;;;;;;;;;;;;19.39;72.91;99647.02;1725015;83;20136;-68
2022/08/07 08:17:23;;;;;;;;;;;;;;;19.49;73.00;99647.33;1697094;83;21132;-70
2022/08/07 08:19:55;;;;;;;;;;;;;;;19.60;72.93;99645.25;1691445;83;20191;-69
2022/08/07 08:27:53;;;;;;;;;;;;;;;19.71;71.42;99656.63;1694105;83;20157;-69
2022/08/07 08:30:19;;;;;;;;;;;;;;;19.67;71.35;99654.09;1694474;84;20557;-70
2022/08/07 08:32:49;;;;;;;;;;;;;;;19.65;71.14;99661.59;1695070;84;20139;-69
2022/08/07 08:35:17;;;;;;;;;;;;;;;19.65;71.14;99652.66;1693061;84;20187;-70
2022/08/07 08:37:44;;;;;;;;;;;;;;;19.70;71.14;99659.56;1695347;84;20119;-69
2022/08/07 08:40:20;;;;;;;;;;;;;;;19.80;71.22;99660.38;1694624;84;20215;-72
2022/08/07 08:42:50;;;;;;;;;;;;;;;19.94;70.89;99661.88;1700531;84;21259;-69
2022/08/07 08:45:43;;;;;;;;;;;;;;;20.02;70.49;99658.33;1693986;84;20122;-71
2022/08/07 08:48:26;;;;;;;;;;;;;;;20.07;70.14;99662.55;1692890;83;20212;-69
2022/08/07 08:51:18;;;;;;;;;;;;;;;20.09;70.02;99665.01;1673092;84;20133;-70
2022/08/07 08:54:00;;;;;;;;;;;;;;;20.18;69.62;99665.81;1644383;85;20163;-70
2022/08/07 08:56:29;;;;;;;;;;;;;;;20.27;69.40;99671.77;1658673;86;20541;-69
2022/08/07 08:59:02;;;;;;;;;;;;;;;20.33;69.15;99664.11;1658714;86;20147;-69
2022/08/07 09:01:52;;;;;;;;;;;;;;;20.36;68.93;99673.11;1694705;84;20198;-69
2022/08/07 09:04:44;;;;;;;;;;;;;;;20.39;68.75;99671.27;1676260;84;20121;-68
2022/08/07 09:07:45;;;;;;;;;;;;;;;20.38;68.75;99673.70;1689751;84;20281;-70
2022/08/07 09:10:18;;;;;;;;;;;;;;;20.36;68.87;99674.45;1695220;84;21339;-69
2022/08/07 09:12:55;;;;;;;;;;;;;;;20.33;68.83;99683.02;1691623;84;38373;-70
2022/08/07 09:15:40;;;;;;;;;;;;;;;20.33;68.66;99681.67;1694762;84;20166;-69
2022/08/07 09:18:33;;;;;;;;;;;;;;;20.33;68.36;99684.37;1695416;84;20167;-68
2022/08/07 09:21:24;;;;;;;;;;;;;;;20.37;68.31;99682.84;1685599;84;20170;-69
2022/08/07 09:24:02;;;;;;;;;;;;;;;20.43;67.74;99690.05;1688676;83;20437;-70
2022/08/07 09:26:44;;;;;;;;;;;;;;;20.44;67.57;99691.67;1682243;84;20456;-71
2022/08/07 09:29:37;;;;;;;;;;;;;;;20.46;67.57;99686.89;1695208;84;20154;-70
2022/08/07 09:32:27;;;;;;;;;;;;;;;20.48;67.47;99681.24;1695348;84;20202;-70
2022/08/07 09:35:18;;;;;;;;;;;;;;;20.45;67.32;99679.00;1685216;83;20177;-69
2022/08/07 09:37:58;;;;;;;;;;;;;;;20.43;67.15;99679.76;1701045;83;21348;-68
2022/08/07 09:40:43;;;;;;;;;;;;;;;20.40;67.19;99680.21;1712824;83;20215;-70
2022/08/07 09:43:34;;;;;;;;;;;;;;;20.40;67.15;99675.64;1706140;83;20146;-70
2022/08/07 09:46:23;;;;;;;;;;;;;;;20.45;67.10;99677.12;1713058;83;20505;-70
2022/08/07 09:49:02;;;;;;;;;;;;;;;20.62;66.99;99670.55;1713227;83;20121;-71
2022/08/07 09:51:44;;;;;;;;;;;;;;;20.78;66.62;99665.81;1712870;83;21815;-70
2022/08/07 09:54:14;;;;;;;;;;;;;;;20.98;66.14;99670.41;1694786;83;20490;-68
2022/08/07 09:56:53;;;;;;;;;;;;;;;21.21;65.53;99670.98;1712990;83;20180;-68
2022/08/07 09:59:38;;;;;;;;;;;;;;;21.33;64.99;99662.33;1685891;85;20621;-68
2022/08/07 10:02:44;;;;;;;;;;;;;;;21.48;64.46;99666.21;1678910;84;20168;-68
2022/08/07 10:05:23;;;;;;;;;;;;;;;21.65;64.04;99666.33;1708346;83;21162;-69
2022/08/07 10:08:10;;;;;;;;;;;;;;;21.80;63.55;99666.65;1709933;83;20126;-68
2022/08/07 10:10:40;;;;;;;;;;;;;;;21.91;63.12;99672.61;1712314;83;20161;-68
2022/08/07 10:13:37;;;;;;;;;;;;;;;22.02;62.59;99670.41;1712824;83;20166;-68
2022/08/07 10:16:19;;;;;;;;;;;;;;;22.16;62.12;99672.30;1650203;86;20225;-69
2022/08/07 10:18:59;;;;;;;;;;;;;;;22.28;61.99;99668.20;1712495;83;21179;-70
2022/08/07 10:21:32;;;;;;;;;;;;;;;22.52;61.54;99664.34;1711975;82;20178;-69
2022/08/07 10:24:21;;;;;;;;;;;;;;;22.70;60.68;99658.73;1710492;84;20156;-70
2022/08/07 10:27:05;;;;;;;;;;;;;;;22.80;60.18;99648.59;1702215;82;20146;-70
2022/08/07 10:29:43;;;;;;;;;;;;;;;22.99;60.07;99656.27;1707921;82;20180;-69
2022/08/07 10:32:35;;;;;;;;;;;;;;;23.30;59.55;99652.13;1732060;82;21169;-70
2022/08/07 10:35:25;;;;;;;;;;;;;;;23.59;57.80;99649.61;1716429;82;20492;-69
2022/08/07 10:38:13;;;;;;;;;;;;;;;23.80;56.52;99650.14;1711608;82;20184;-69
2022/08/07 10:40:46;;;;;;;;;;;;;;;23.92;55.95;99648.67;1695790;84;20178;-66
2022/08/07 10:43:16;;;;;;;;;;;;;;;24.11;55.95;99650.57;1713435;82;20114;-64
2022/08/07 10:45:46;;;;;;;;;;;;;;;24.23;55.27;99638.48;1712835;83;21146;-66
2022/08/07 10:48:47;;;;;;;;;;;;;;;24.20;55.18;99636.80;1712662;82;20153;-69
2022/08/07 10:51:31;;;;;;;;;;;;;;;24.18;55.33;99642.50;1717154;82;20483;-71
2022/08/07 10:54:14;;;;;;;;;;;;;;;24.05;55.45;99648.30;1713891;83;20141;-72
2022/08/07 10:56:47;;;;;;;;;;;;;;;23.96;55.64;99646.55;1713013;82;20177;-68
2022/08/07 10:59:23;;;;;;;;;;;;;;;23.90;56.60;99641.33;1714116;82;21174;-68
2022/08/07 11:02:13;;;;;;;;;;;;;;;23.72;56.11;99638.92;1711327;82;20118;-68
2022/08/07 11:05:05;;;;;;;;;;;;;;;23.63;56.26;99633.62;1713526;82;20126;-68
2022/08/07 11:07:39;;;;;;;;;;;;;;;23.59;56.73;99633.84;1712995;83;20209;-69
2022/08/07 11:10:26;;;;;;;;;;;;;;;23.58;57.34;99632.19;1709497;82;20121;-68
2022/08/07 11:13:08;;;;;;;;;;;;;;;23.59;57.73;99628.42;1713547;83;21149;-68
2022/08/07 11:15:37;;;;;;;;;;;;;;;23.51;56.81;99624.77;1701411;84;20079;-68
2022/08/07 11:18:31;;;;;;;;;;;;;;;23.49;56.88;99621.50;1714314;83;20117;-69
2022/08/07 11:21:08;;;;;;;;;;;;;;;23.45;57.09;99618.98;1672807;84;20121;-68
2022/08/07 11:24:02;;;;;;;;;;;;;;;23.53;57.65;99611.77;1663003;84;20112;-69
2022/08/07 11:26:37;;;;;;;;;;;;;;;23.77;57.70;99615.36;1728699;82;21112;-68
2022/08/07 11:29:23;;;;;;;;;;;;;;;23.94;57.05;99613.39;1674633;83;20237;-68
2022/08/07 11:32:02;;;;;;;;;;;;;;;24.08;56.43;99607.56;1697776;83;20217;-69
2022/08/07 11:34:40;;;;;;;;;;;;;;;24.31;56.21;99610.02;1692305;83;20541;-69
2022/08/07 11:37:17;;;;;;;;;;;;;;;24.49;55.34;99611.84;1717291;83;20446;-69
2022/08/07 11:39:49;;;;;;;;;;;;;;;24.51;54.41;99604.24;1681993;85;21209;-68
2022/08/07 11:42:32;;;;;;;;;;;;;;;24.62;54.47;99607.88;1687584;84;20132;-68
2022/08/07 11:45:34;;;;;;;;;;;;;;;24.78;53.86;99602.89;1680864;84;20162;-69
2022/08/07 11:48:26;;;;;;;;;;;;;;;24.96;53.38;99601.12;1683243;84;20192;-69
2022/08/07 11:51:15;;;;;;;;;;;;;;;25.16;52.37;99592.27;1675672;84;20149;-68
2022/08/07 11:54:10;;;;;;;;;;;;;;;25.37;52.18;99591.88;1712257;83;22115;-68
2022/08/07 11:56:52;;;;;;;;;;;;;;;25.52;50.48;99580.56;1694621;83;20126;-68
2022/08/07 11:59:45;;;;;;;;;;;;;;;25.54;50.29;99580.28;1714425;83;20485;-70
2022/08/07 12:02:31;;;;;;;;;;;;;;;25.67;50.30;99577.91;1690262;84;20114;-67
2022/08/07 12:05:24;;;;;;;;;;;;;;;25.68;49.42;99576.00;1676138;85;20139;-68
2022/08/07 12:08:00;;;;;;;;;;;;;;;25.75;49.24;99572.48;1672610;85;21184;-69
2022/08/07 12:10:59;;;;;;;;;;;;;;;25.91;48.74;99564.64;1678254;85;20097;-69
2022/08/07 12:13:51;;;;;;;;;;;;;;;25.88;48.12;99567.91;1665000;84;20178;-70
2022/08/07 12:16:28;;;;;;;;;;;;;;;25.83;48.11;99555.62;1676619;85;20801;-68
2022/08/07 12:19:17;;;;;;;;;;;;;;;25.78;48.63;99556.14;1686946;84;20480;-68
2022/08/07 12:21:54;;;;;;;;;;;;;;;25.68;49.01;99560.45;1681049;84;21239;-70
2022/08/07 12:24:23;;;;;;;;;;;;;;;25.63;49.40;99551.44;1680277;84;20144;-69
2022/08/07 12:26:59;;;;;;;;;;;;;;;25.67;49.43;99547.11;1668153;84;20081;-67
2022/08/07 12:29:39;;;;;;;;;;;;;;;25.73;48.77;99541.41;1676728;85;20173;-67
2022/08/07 12:32:30;;;;;;;;;;;;;;;25.70;48.47;99534.33;1712956;83;20448;-69
2022/08/07 12:34:57;;;;;;;;;;;;;;;25.64;47.73;99537.57;1710699;83;21786;-69
2022/08/07 12:37:24;;;;;;;;;;;;;;;25.53;47.59;99537.25;1653836;85;20540;-68
2022/08/07 12:39:51;;;;;;;;;;;;;;;25.40;47.48;99536.87;1680544;85;20107;-67
2022/08/07 12:42:23;;;;;;;;;;;;;;;25.31;46.99;99533.86;1661373;85;20483;-67
2022/08/07 12:44:50;;;;;;;;;;;;;;;25.20;47.21;99532.16;1658421;86;20149;-67
2022/08/07 12:47:43;;;;;;;;;;;;;;;25.14;47.10;99534.56;1657240;86;21269;-69
2022/08/07 12:50:25;;;;;;;;;;;;;;;25.10;47.41;99530.20;1658403;86;20137;-69
2022/08/07 12:53:18;;;;;;;;;;;;;;;25.10;47.70;99537.55;1673578;85;20187;-68
2022/08/07 12:56:10;;;;;;;;;;;;;;;25.06;47.50;99528.25;1666605;85;20179;-69
2022/08/07 12:58:38;;;;;;;;;;;;;;;25.03;47.28;99532.85;1658651;86;20229;-67
2022/08/07 13:01:09;;;;;;;;;;;;;;;25.00;47.55;99523.31;1658625;86;21336;-66
2022/08/07 13:04:02;;;;;;;;;;;;;;;25.01;47.71;99520.87;1663386;85;21238;-69
2022/08/07 13:06:53;;;;;;;;;;;;;;;25.02;47.55;99519.81;1659788;85;20096;-68
2022/08/07 13:09:58;;;;;;;;;;;;;;;25.03;47.63;99522.80;1656217;86;20101;-64
2022/08/07 13:12:34;;;;;;;;;;;;;;;25.02;47.67;99518.98;1673070;85;20169;-64
2022/08/07 13:15:04;;;;;;;;;;;;;;;25.04;47.89;99519.00;1669223;85;21175;-63
2022/08/07 13:17:48;;;;;;;;;;;;;;;25.08;47.88;99520.67;1658678;86;20554;-64
2022/08/07 13:20:30;;;;;;;;;;;;;;;25.09;47.10;99520.39;1642703;86;20175;-63
2022/08/07 13:23:09;;;;;;;;;;;;;;;25.10;46.85;99523.94;1658717;86;20130;-62
2022/08/07 13:25:54;;;;;;;;;;;;;;;25.12;46.57;99522.59;1652725;85;20619;-63